sensor_id;sensor_type;location;lat;lon;timestamp;pressure;altitude;pressure_sealevel;temperature
19644;BMP180;9970;-36.854;174.870;2023-02-28T00:00:35;100782.00;;;20.00
19644;BMP180;9970;-36.854;174.870;2023-02-28T00:03:08;100778.00;;;20.00
19644;BMP180;9970;-36.854;174.870;2023-02-28T00:05:41;100774.00;;;20.00
19644;BMP180;9970;-36.854;174.870;2023-02-28T00:08:14;100774.00;;;20.10
19644;BMP180;9970;-36.854;174.870;2023-02-28T00:10:47;100774.00;;;20.10
19644;BMP180;9970;-36.854;174.870;2023-02-28T00:13:20;100769.00;;;20.20
19644;BMP180;9970;-36.854;174.870;2023-02-28T00:16:10;100774.00;;;20.20
19644;BMP180;9970;-36.854;174.870;2023-02-28T00:18:37;100767.00;;;20.30
19644;BMP180;9970;-36.854;174.870;2023-02-28T00:21:10;100765.00;;;20.40
19644;BMP180;9970;-36.854;174.870;2023-02-28T00:23:43;100766.00;;;20.40
19644;BMP180;9970;-36.854;174.870;2023-02-28T00:26:17;100761.00;;;20.50
19644;BMP180;9970;-36.854;174.870;2023-02-28T00:28:51;100757.00;;;20.60
19644;BMP180;9970;-36.854;174.870;2023-02-28T00:31:24;100752.00;;;20.60
19644;BMP180;9970;-36.854;174.870;2023-02-28T00:33:57;100759.00;;;20.60
19644;BMP180;9970;-36.854;174.870;2023-02-28T00:36:30;100748.00;;;20.60
19644;BMP180;9970;-36.854;174.870;2023-02-28T00:39:03;100754.00;;;20.60
19644;BMP180;9970;-36.854;174.870;2023-02-28T00:41:36;100750.00;;;20.60
19644;BMP180;9970;-36.854;174.870;2023-02-28T00:44:12;100739.00;;;20.70
19644;BMP180;9970;-36.854;174.870;2023-02-28T00:46:45;100744.00;;;20.70
19644;BMP180;9970;-36.854;174.870;2023-02-28T00:49:18;100751.00;;;20.70
19644;BMP180;9970;-36.854;174.870;2023-02-28T00:51:51;100748.00;;;20.80
19644;BMP180;9970;-36.854;174.870;2023-02-28T00:54:25;100750.00;;;20.90
19644;BMP180;9970;-36.854;174.870;2023-02-28T00:56:58;100748.00;;;20.90
19644;BMP180;9970;-36.854;174.870;2023-02-28T00:59:32;100751.00;;;21.00
19644;BMP180;9970;-36.854;174.870;2023-02-28T01:02:04;100761.00;;;21.00
19644;BMP180;9970;-36.854;174.870;2023-02-28T01:04:37;100762.00;;;21.00
19644;BMP180;9970;-36.854;174.870;2023-02-28T01:07:10;100758.00;;;21.10
19644;BMP180;9970;-36.854;174.870;2023-02-28T01:09:44;100753.00;;;21.10
19644;BMP180;9970;-36.854;174.870;2023-02-28T01:12:18;100757.00;;;21.10
19644;BMP180;9970;-36.854;174.870;2023-02-28T01:14:51;100746.00;;;21.20
19644;BMP180;9970;-36.854;174.870;2023-02-28T01:17:23;100750.00;;;21.20
19644;BMP180;9970;-36.854;174.870;2023-02-28T01:19:57;100746.00;;;21.10
19644;BMP180;9970;-36.854;174.870;2023-02-28T01:22:30;100748.00;;;21.10
19644;BMP180;9970;-36.854;174.870;2023-02-28T01:25:03;100738.00;;;21.10
19644;BMP180;9970;-36.854;174.870;2023-02-28T01:27:35;100741.00;;;21.10
19644;BMP180;9970;-36.854;174.870;2023-02-28T01:30:11;100743.00;;;21.20
19644;BMP180;9970;-36.854;174.870;2023-02-28T01:32:44;100737.00;;;21.10
19644;BMP180;9970;-36.854;174.870;2023-02-28T01:35:17;100733.00;;;21.10
19644;BMP180;9970;-36.854;174.870;2023-02-28T01:37:50;100732.00;;;21.10
19644;BMP180;9970;-36.854;174.870;2023-02-28T01:40:25;100732.00;;;21.10
19644;BMP180;9970;-36.854;174.870;2023-02-28T01:42:58;100729.00;;;21.10
19644;BMP180;9970;-36.854;174.870;2023-02-28T01:45:32;100734.00;;;21.20
19644;BMP180;9970;-36.854;174.870;2023-02-28T01:48:09;100725.00;;;21.20
19644;BMP180;9970;-36.854;174.870;2023-02-28T01:50:45;100724.00;;;21.20
19644;BMP180;9970;-36.854;174.870;2023-02-28T01:53:21;100718.00;;;21.20
19644;BMP180;9970;-36.854;174.870;2023-02-28T01:55:55;100712.00;;;21.20
19644;BMP180;9970;-36.854;174.870;2023-02-28T01:58:27;100717.00;;;21.20
19644;BMP180;9970;-36.854;174.870;2023-02-28T02:01:00;100708.00;;;21.20
19644;BMP180;9970;-36.854;174.870;2023-02-28T02:03:38;100713.00;;;21.20
19644;BMP180;9970;-36.854;174.870;2023-02-28T02:06:11;100716.00;;;21.30
19644;BMP180;9970;-36.854;174.870;2023-02-28T02:08:44;100718.00;;;21.30
19644;BMP180;9970;-36.854;174.870;2023-02-28T02:11:17;100713.00;;;21.30
19644;BMP180;9970;-36.854;174.870;2023-02-28T02:14:09;100701.00;;;21.30
19644;BMP180;9970;-36.854;174.870;2023-02-28T02:17:09;100706.00;;;21.30
19644;BMP180;9970;-36.854;174.870;2023-02-28T02:22:40;100699.00;;;21.30
19644;BMP180;9970;-36.854;174.870;2023-02-28T02:25:19;100700.00;;;21.30
19644;BMP180;9970;-36.854;174.870;2023-02-28T02:27:57;100701.00;;;21.30
19644;BMP180;9970;-36.854;174.870;2023-02-28T02:31:13;100697.00;;;21.30
19644;BMP180;9970;-36.854;174.870;2023-02-28T02:36:22;100701.00;;;21.40
19644;BMP180;9970;-36.854;174.870;2023-02-28T02:41:45;100686.00;;;21.40
19644;BMP180;9970;-36.854;174.870;2023-02-28T02:47:10;100691.00;;;21.40
19644;BMP180;9970;-36.854;174.870;2023-02-28T02:49:48;100676.00;;;21.40
19644;BMP180;9970;-36.854;174.870;2023-02-28T02:52:18;100680.00;;;21.40
19644;BMP180;9970;-36.854;174.870;2023-02-28T02:54:53;100684.00;;;21.30
19644;BMP180;9970;-36.854;174.870;2023-02-28T02:57:33;100686.00;;;21.30
19644;BMP180;9970;-36.854;174.870;2023-02-28T03:00:04;100678.00;;;21.30
19644;BMP180;9970;-36.854;174.870;2023-02-28T03:02:39;100679.00;;;21.30
19644;BMP180;9970;-36.854;174.870;2023-02-28T03:05:30;100688.00;;;21.30
19644;BMP180;9970;-36.854;174.870;2023-02-28T03:08:03;100679.00;;;21.30
19644;BMP180;9970;-36.854;174.870;2023-02-28T03:10:44;100669.00;;;21.30
19644;BMP180;9970;-36.854;174.870;2023-02-28T03:13:32;100674.00;;;21.30
19644;BMP180;9970;-36.854;174.870;2023-02-28T03:18:58;100665.00;;;21.30
19644;BMP180;9970;-36.854;174.870;2023-02-28T03:24:24;100670.00;;;21.30
19644;BMP180;9970;-36.854;174.870;2023-02-28T03:26:58;100675.00;;;21.30
19644;BMP180;9970;-36.854;174.870;2023-02-28T03:29:39;100674.00;;;21.30
19644;BMP180;9970;-36.854;174.870;2023-02-28T03:32:26;100679.00;;;21.30
19644;BMP180;9970;-36.854;174.870;2023-02-28T03:37:39;100671.00;;;21.30
19644;BMP180;9970;-36.854;174.870;2023-02-28T03:40:17;100667.00;;;21.30
19644;BMP180;9970;-36.854;174.870;2023-02-28T03:42:53;100670.00;;;21.30
19644;BMP180;9970;-36.854;174.870;2023-02-28T03:45:28;100669.00;;;21.30
19644;BMP180;9970;-36.854;174.870;2023-02-28T03:48:06;100673.00;;;21.20
19644;BMP180;9970;-36.854;174.870;2023-02-28T03:50:39;100668.00;;;21.20
19644;BMP180;9970;-36.854;174.870;2023-02-28T03:55:49;100667.00;;;21.20
19644;BMP180;9970;-36.854;174.870;2023-02-28T03:58:35;100670.00;;;21.20
19644;BMP180;9970;-36.854;174.870;2023-02-28T04:01:18;100661.00;;;21.20
19644;BMP180;9970;-36.854;174.870;2023-02-28T04:03:47;100651.00;;;21.20
19644;BMP180;9970;-36.854;174.870;2023-02-28T04:06:22;100654.00;;;21.20
19644;BMP180;9970;-36.854;174.870;2023-02-28T04:08:55;100654.00;;;21.20
19644;BMP180;9970;-36.854;174.870;2023-02-28T04:11:51;100649.00;;;21.10
19644;BMP180;9970;-36.854;174.870;2023-02-28T04:14:15;100644.00;;;21.10
19644;BMP180;9970;-36.854;174.870;2023-02-28T04:16:49;100639.00;;;21.10
19644;BMP180;9970;-36.854;174.870;2023-02-28T04:19:22;100639.00;;;21.10
19644;BMP180;9970;-36.854;174.870;2023-02-28T04:21:55;100632.00;;;21.10
19644;BMP180;9970;-36.854;174.870;2023-02-28T04:24:32;100640.00;;;21.10
19644;BMP180;9970;-36.854;174.870;2023-02-28T04:27:05;100639.00;;;21.10
19644;BMP180;9970;-36.854;174.870;2023-02-28T04:29:38;100648.00;;;21.10
19644;BMP180;9970;-36.854;174.870;2023-02-28T04:32:13;100647.00;;;21.10
19644;BMP180;9970;-36.854;174.870;2023-02-28T04:34:45;100639.00;;;21.10
19644;BMP180;9970;-36.854;174.870;2023-02-28T04:37:25;100650.00;;;21.10
19644;BMP180;9970;-36.854;174.870;2023-02-28T04:39:59;100647.00;;;21.10
19644;BMP180;9970;-36.854;174.870;2023-02-28T04:42:36;100654.00;;;21.10
19644;BMP180;9970;-36.854;174.870;2023-02-28T04:45:10;100649.00;;;21.10
19644;BMP180;9970;-36.854;174.870;2023-02-28T04:47:44;100647.00;;;21.10
19644;BMP180;9970;-36.854;174.870;2023-02-28T04:50:17;100653.00;;;21.10
19644;BMP180;9970;-36.854;174.870;2023-02-28T04:52:51;100655.00;;;21.10
19644;BMP180;9970;-36.854;174.870;2023-02-28T04:55:24;100653.00;;;21.10
19644;BMP180;9970;-36.854;174.870;2023-02-28T04:57:57;100654.00;;;21.00
19644;BMP180;9970;-36.854;174.870;2023-02-28T05:00:31;100658.00;;;21.00
19644;BMP180;9970;-36.854;174.870;2023-02-28T05:03:04;100657.00;;;21.00
19644;BMP180;9970;-36.854;174.870;2023-02-28T05:05:38;100657.00;;;21.00
19644;BMP180;9970;-36.854;174.870;2023-02-28T05:08:11;100660.00;;;21.00
19644;BMP180;9970;-36.854;174.870;2023-02-28T05:10:44;100657.00;;;21.00
19644;BMP180;9970;-36.854;174.870;2023-02-28T05:13:17;100649.00;;;20.90
19644;BMP180;9970;-36.854;174.870;2023-02-28T05:15:50;100649.00;;;20.90
19644;BMP180;9970;-36.854;174.870;2023-02-28T05:18:23;100652.00;;;20.90
19644;BMP180;9970;-36.854;174.870;2023-02-28T05:20:56;100641.00;;;20.90
19644;BMP180;9970;-36.854;174.870;2023-02-28T05:23:29;100655.00;;;20.90
19644;BMP180;9970;-36.854;174.870;2023-02-28T05:26:02;100655.00;;;20.90
19644;BMP180;9970;-36.854;174.870;2023-02-28T05:28:34;100655.00;;;20.80
19644;BMP180;9970;-36.854;174.870;2023-02-28T05:31:10;100652.00;;;20.80
19644;BMP180;9970;-36.854;174.870;2023-02-28T05:33:43;100660.00;;;20.80
19644;BMP180;9970;-36.854;174.870;2023-02-28T05:36:15;100655.00;;;20.80
19644;BMP180;9970;-36.854;174.870;2023-02-28T05:38:49;100651.00;;;20.70
19644;BMP180;9970;-36.854;174.870;2023-02-28T05:41:22;100654.00;;;20.80
19644;BMP180;9970;-36.854;174.870;2023-02-28T05:43:56;100654.00;;;20.70
19644;BMP180;9970;-36.854;174.870;2023-02-28T05:46:33;100658.00;;;20.70
19644;BMP180;9970;-36.854;174.870;2023-02-28T05:49:05;100654.00;;;20.70
19644;BMP180;9970;-36.854;174.870;2023-02-28T05:51:39;100664.00;;;20.70
19644;BMP180;9970;-36.854;174.870;2023-02-28T05:54:11;100664.00;;;20.70
19644;BMP180;9970;-36.854;174.870;2023-02-28T05:56:45;100638.00;;;20.70
19644;BMP180;9970;-36.854;174.870;2023-02-28T05:59:17;100668.00;;;20.60
19644;BMP180;9970;-36.854;174.870;2023-02-28T06:01:50;100660.00;;;20.60
19644;BMP180;9970;-36.854;174.870;2023-02-28T06:04:24;100665.00;;;20.60
19644;BMP180;9970;-36.854;174.870;2023-02-28T06:06:58;100666.00;;;20.60
19644;BMP180;9970;-36.854;174.870;2023-02-28T06:09:31;100655.00;;;20.60
19644;BMP180;9970;-36.854;174.870;2023-02-28T06:12:05;100656.00;;;20.60
19644;BMP180;9970;-36.854;174.870;2023-02-28T06:14:38;100653.00;;;20.50
19644;BMP180;9970;-36.854;174.870;2023-02-28T06:17:11;100660.00;;;20.50
19644;BMP180;9970;-36.854;174.870;2023-02-28T06:19:44;100663.00;;;20.50
19644;BMP180;9970;-36.854;174.870;2023-02-28T06:22:17;100660.00;;;20.50
19644;BMP180;9970;-36.854;174.870;2023-02-28T06:24:50;100667.00;;;20.40
19644;BMP180;9970;-36.854;174.870;2023-02-28T06:27:23;100655.00;;;20.40
19644;BMP180;9970;-36.854;174.870;2023-02-28T06:29:56;100662.00;;;20.40
19644;BMP180;9970;-36.854;174.870;2023-02-28T06:32:29;100666.00;;;20.40
19644;BMP180;9970;-36.854;174.870;2023-02-28T06:35:02;100664.00;;;20.40
19644;BMP180;9970;-36.854;174.870;2023-02-28T06:37:36;100674.00;;;20.40
19644;BMP180;9970;-36.854;174.870;2023-02-28T06:40:10;100672.00;;;20.30
19644;BMP180;9970;-36.854;174.870;2023-02-28T06:42:44;100666.00;;;20.30
19644;BMP180;9970;-36.854;174.870;2023-02-28T06:45:17;100670.00;;;20.30
19644;BMP180;9970;-36.854;174.870;2023-02-28T06:47:49;100667.00;;;20.30
19644;BMP180;9970;-36.854;174.870;2023-02-28T06:50:23;100673.00;;;20.30
19644;BMP180;9970;-36.854;174.870;2023-02-28T06:52:56;100681.00;;;20.30
19644;BMP180;9970;-36.854;174.870;2023-02-28T06:55:28;100676.00;;;20.20
19644;BMP180;9970;-36.854;174.870;2023-02-28T06:58:02;100681.00;;;20.20
19644;BMP180;9970;-36.854;174.870;2023-02-28T07:00:34;100680.00;;;20.20
19644;BMP180;9970;-36.854;174.870;2023-02-28T07:03:07;100685.00;;;20.20
19644;BMP180;9970;-36.854;174.870;2023-02-28T07:05:40;100683.00;;;20.10
19644;BMP180;9970;-36.854;174.870;2023-02-28T07:08:14;100695.00;;;20.10
19644;BMP180;9970;-36.854;174.870;2023-02-28T07:10:47;100700.00;;;20.10
19644;BMP180;9970;-36.854;174.870;2023-02-28T07:13:20;100709.00;;;20.10
19644;BMP180;9970;-36.854;174.870;2023-02-28T07:16:04;100708.00;;;20.10
19644;BMP180;9970;-36.854;174.870;2023-02-28T07:18:40;100718.00;;;20.10
19644;BMP180;9970;-36.854;174.870;2023-02-28T07:21:13;100727.00;;;20.10
19644;BMP180;9970;-36.854;174.870;2023-02-28T07:23:46;100728.00;;;20.00
19644;BMP180;9970;-36.854;174.870;2023-02-28T07:26:20;100724.00;;;20.00
19644;BMP180;9970;-36.854;174.870;2023-02-28T07:28:53;100720.00;;;20.00
19644;BMP180;9970;-36.854;174.870;2023-02-28T07:31:25;100725.00;;;20.00
19644;BMP180;9970;-36.854;174.870;2023-02-28T07:33:59;100733.00;;;20.00
19644;BMP180;9970;-36.854;174.870;2023-02-28T07:36:32;100731.00;;;20.00
19644;BMP180;9970;-36.854;174.870;2023-02-28T07:39:05;100739.00;;;20.00
19644;BMP180;9970;-36.854;174.870;2023-02-28T07:41:38;100744.00;;;20.00
19644;BMP180;9970;-36.854;174.870;2023-02-28T07:44:12;100742.00;;;20.00
19644;BMP180;9970;-36.854;174.870;2023-02-28T07:46:45;100750.00;;;20.00
19644;BMP180;9970;-36.854;174.870;2023-02-28T07:49:18;100741.00;;;19.90
19644;BMP180;9970;-36.854;174.870;2023-02-28T07:51:52;100752.00;;;19.90
19644;BMP180;9970;-36.854;174.870;2023-02-28T07:54:26;100746.00;;;19.90
19644;BMP180;9970;-36.854;174.870;2023-02-28T07:56:58;100743.00;;;19.90
19644;BMP180;9970;-36.854;174.870;2023-02-28T07:59:32;100743.00;;;19.90
19644;BMP180;9970;-36.854;174.870;2023-02-28T08:02:05;100743.00;;;19.90
19644;BMP180;9970;-36.854;174.870;2023-02-28T08:04:38;100747.00;;;19.90
19644;BMP180;9970;-36.854;174.870;2023-02-28T08:07:17;100746.00;;;19.90
19644;BMP180;9970;-36.854;174.870;2023-02-28T08:09:45;100753.00;;;19.90
19644;BMP180;9970;-36.854;174.870;2023-02-28T08:12:18;100753.00;;;19.90
19644;BMP180;9970;-36.854;174.870;2023-02-28T08:14:51;100753.00;;;19.80
19644;BMP180;9970;-36.854;174.870;2023-02-28T08:17:24;100752.00;;;19.80
19644;BMP180;9970;-36.854;174.870;2023-02-28T08:19:57;100768.00;;;19.80
19644;BMP180;9970;-36.854;174.870;2023-02-28T08:22:34;100765.00;;;19.80
19644;BMP180;9970;-36.854;174.870;2023-02-28T08:25:08;100770.00;;;19.80
19644;BMP180;9970;-36.854;174.870;2023-02-28T08:27:42;100782.00;;;19.80
19644;BMP180;9970;-36.854;174.870;2023-02-28T08:30:15;100780.00;;;19.80
19644;BMP180;9970;-36.854;174.870;2023-02-28T08:32:51;100782.00;;;19.80
19644;BMP180;9970;-36.854;174.870;2023-02-28T08:35:24;100789.00;;;19.80
19644;BMP180;9970;-36.854;174.870;2023-02-28T08:37:57;100787.00;;;19.80
19644;BMP180;9970;-36.854;174.870;2023-02-28T08:40:30;100776.00;;;19.80
19644;BMP180;9970;-36.854;174.870;2023-02-28T08:43:03;100792.00;;;19.70
19644;BMP180;9970;-36.854;174.870;2023-02-28T08:45:35;100793.00;;;19.70
19644;BMP180;9970;-36.854;174.870;2023-02-28T08:48:09;100796.00;;;19.70
19644;BMP180;9970;-36.854;174.870;2023-02-28T08:50:54;100796.00;;;19.70
19644;BMP180;9970;-36.854;174.870;2023-02-28T08:53:21;100804.00;;;19.70
19644;BMP180;9970;-36.854;174.870;2023-02-28T08:56:16;100803.00;;;19.70
19644;BMP180;9970;-36.854;174.870;2023-02-28T08:58:35;100803.00;;;19.70
19644;BMP180;9970;-36.854;174.870;2023-02-28T09:01:12;100807.00;;;19.70
19644;BMP180;9970;-36.854;174.870;2023-02-28T09:03:44;100811.00;;;19.70
19644;BMP180;9970;-36.854;174.870;2023-02-28T09:06:18;100817.00;;;19.70
19644;BMP180;9970;-36.854;174.870;2023-02-28T09:08:51;100810.00;;;19.70
19644;BMP180;9970;-36.854;174.870;2023-02-28T09:11:24;100818.00;;;19.70
19644;BMP180;9970;-36.854;174.870;2023-02-28T09:13:58;100818.00;;;19.70
19644;BMP180;9970;-36.854;174.870;2023-02-28T09:16:33;100817.00;;;19.70
19644;BMP180;9970;-36.854;174.870;2023-02-28T09:19:06;100818.00;;;19.70
19644;BMP180;9970;-36.854;174.870;2023-02-28T09:21:45;100815.00;;;19.70
19644;BMP180;9970;-36.854;174.870;2023-02-28T09:24:18;100816.00;;;19.70
19644;BMP180;9970;-36.854;174.870;2023-02-28T09:26:51;100819.00;;;19.70
19644;BMP180;9970;-36.854;174.870;2023-02-28T09:29:25;100814.00;;;19.70
19644;BMP180;9970;-36.854;174.870;2023-02-28T09:31:58;100806.00;;;19.70
19644;BMP180;9970;-36.854;174.870;2023-02-28T09:34:31;100801.00;;;19.70
19644;BMP180;9970;-36.854;174.870;2023-02-28T09:37:05;100797.00;;;19.70
19644;BMP180;9970;-36.854;174.870;2023-02-28T09:39:39;100800.00;;;19.70
19644;BMP180;9970;-36.854;174.870;2023-02-28T09:42:23;100806.00;;;19.60
19644;BMP180;9970;-36.854;174.870;2023-02-28T09:44:57;100804.00;;;19.60
19644;BMP180;9970;-36.854;174.870;2023-02-28T09:47:34;100812.00;;;19.60
19644;BMP180;9970;-36.854;174.870;2023-02-28T09:53:13;100813.00;;;19.60
19644;BMP180;9970;-36.854;174.870;2023-02-28T09:55:41;100819.00;;;19.60
19644;BMP180;9970;-36.854;174.870;2023-02-28T09:58:28;100818.00;;;19.60
19644;BMP180;9970;-36.854;174.870;2023-02-28T10:01:03;100817.00;;;19.60
19644;BMP180;9970;-36.854;174.870;2023-02-28T10:03:43;100815.00;;;19.60
19644;BMP180;9970;-36.854;174.870;2023-02-28T10:06:18;100820.00;;;19.60
19644;BMP180;9970;-36.854;174.870;2023-02-28T10:08:57;100822.00;;;19.60
19644;BMP180;9970;-36.854;174.870;2023-02-28T10:11:30;100828.00;;;19.50
19644;BMP180;9970;-36.854;174.870;2023-02-28T10:14:15;100827.00;;;19.50
19644;BMP180;9970;-36.854;174.870;2023-02-28T10:16:52;100829.00;;;19.60
19644;BMP180;9970;-36.854;174.870;2023-02-28T10:22:37;100831.00;;;19.50
19644;BMP180;9970;-36.854;174.870;2023-02-28T10:25:26;100834.00;;;19.50
19644;BMP180;9970;-36.854;174.870;2023-02-28T10:28:01;100833.00;;;19.50
19644;BMP180;9970;-36.854;174.870;2023-02-28T10:30:33;100845.00;;;19.50
19644;BMP180;9970;-36.854;174.870;2023-02-28T10:33:08;100851.00;;;19.50
19644;BMP180;9970;-36.854;174.870;2023-02-28T10:35:40;100856.00;;;19.50
19644;BMP180;9970;-36.854;174.870;2023-02-28T10:38:28;100857.00;;;19.40
19644;BMP180;9970;-36.854;174.870;2023-02-28T10:41:11;100862.00;;;19.40
19644;BMP180;9970;-36.854;174.870;2023-02-28T10:43:45;100866.00;;;19.40
19644;BMP180;9970;-36.854;174.870;2023-02-28T10:46:20;100858.00;;;19.30
19644;BMP180;9970;-36.854;174.870;2023-02-28T10:49:12;100864.00;;;19.30
19644;BMP180;9970;-36.854;174.870;2023-02-28T10:51:41;100859.00;;;19.20
19644;BMP180;9970;-36.854;174.870;2023-02-28T10:54:30;100858.00;;;19.20
19644;BMP180;9970;-36.854;174.870;2023-02-28T10:57:19;100854.00;;;19.20
19644;BMP180;9970;-36.854;174.870;2023-02-28T11:00:05;100850.00;;;19.20
19644;BMP180;9970;-36.854;174.870;2023-02-28T11:02:38;100861.00;;;19.20
19644;BMP180;9970;-36.854;174.870;2023-02-28T11:05:32;100860.00;;;19.20
19644;BMP180;9970;-36.854;174.870;2023-02-28T11:08:15;100860.00;;;19.10
19644;BMP180;9970;-36.854;174.870;2023-02-28T11:10:56;100861.00;;;19.10
19644;BMP180;9970;-36.854;174.870;2023-02-28T11:13:34;100858.00;;;19.10
19644;BMP180;9970;-36.854;174.870;2023-02-28T11:16:10;100850.00;;;19.10
19644;BMP180;9970;-36.854;174.870;2023-02-28T11:18:50;100846.00;;;19.00
19644;BMP180;9970;-36.854;174.870;2023-02-28T11:26:40;100848.00;;;19.00
19644;BMP180;9970;-36.854;174.870;2023-02-28T11:29:20;100852.00;;;19.00
19644;BMP180;9970;-36.854;174.870;2023-02-28T11:32:11;100847.00;;;19.00
19644;BMP180;9970;-36.854;174.870;2023-02-28T11:34:41;100848.00;;;19.00
19644;BMP180;9970;-36.854;174.870;2023-02-28T11:37:16;100861.00;;;19.00
19644;BMP180;9970;-36.854;174.870;2023-02-28T11:39:49;100844.00;;;18.90
19644;BMP180;9970;-36.854;174.870;2023-02-28T11:42:27;100848.00;;;18.90
19644;BMP180;9970;-36.854;174.870;2023-02-28T11:48:02;100839.00;;;18.90
19644;BMP180;9970;-36.854;174.870;2023-02-28T11:56:33;100849.00;;;18.70
19644;BMP180;9970;-36.854;174.870;2023-02-28T12:05:24;100833.00;;;18.80
19644;BMP180;9970;-36.854;174.870;2023-02-28T12:13:43;100845.00;;;18.70
19644;BMP180;9970;-36.854;174.870;2023-02-28T12:27:41;100843.00;;;18.60
19644;BMP180;9970;-36.854;174.870;2023-02-28T12:33:12;100838.00;;;18.60
19644;BMP180;9970;-36.854;174.870;2023-02-28T12:35:57;100839.00;;;18.60
19644;BMP180;9970;-36.854;174.870;2023-02-28T12:38:41;100832.00;;;18.50
19644;BMP180;9970;-36.854;174.870;2023-02-28T12:44:57;100839.00;;;18.50
19644;BMP180;9970;-36.854;174.870;2023-02-28T12:46:49;100844.00;;;18.50
19644;BMP180;9970;-36.854;174.870;2023-02-28T12:49:30;100833.00;;;18.50
19644;BMP180;9970;-36.854;174.870;2023-02-28T12:52:03;100833.00;;;18.50
19644;BMP180;9970;-36.854;174.870;2023-02-28T12:54:42;100843.00;;;18.40
19644;BMP180;9970;-36.854;174.870;2023-02-28T12:59:57;100828.00;;;18.40
19644;BMP180;9970;-36.854;174.870;2023-02-28T13:02:56;100828.00;;;18.40
19644;BMP180;9970;-36.854;174.870;2023-02-28T13:11:28;100819.00;;;18.40
19644;BMP180;9970;-36.854;174.870;2023-02-28T13:14:01;100808.00;;;18.40
19644;BMP180;9970;-36.854;174.870;2023-02-28T13:16:48;100797.00;;;18.30
19644;BMP180;9970;-36.854;174.870;2023-02-28T13:19:22;100797.00;;;18.30
19644;BMP180;9970;-36.854;174.870;2023-02-28T13:21:57;100793.00;;;18.30
19644;BMP180;9970;-36.854;174.870;2023-02-28T13:24:43;100789.00;;;18.30
19644;BMP180;9970;-36.854;174.870;2023-02-28T13:29:57;100783.00;;;18.30
19644;BMP180;9970;-36.854;174.870;2023-02-28T13:32:32;100786.00;;;18.30
19644;BMP180;9970;-36.854;174.870;2023-02-28T13:37:43;100781.00;;;18.20
19644;BMP180;9970;-36.854;174.870;2023-02-28T13:40:32;100775.00;;;18.20
19644;BMP180;9970;-36.854;174.870;2023-02-28T13:43:08;100774.00;;;18.20
19644;BMP180;9970;-36.854;174.870;2023-02-28T13:45:44;100774.00;;;18.20
19644;BMP180;9970;-36.854;174.870;2023-02-28T13:48:23;100772.00;;;18.20
19644;BMP180;9970;-36.854;174.870;2023-02-28T13:50:56;100773.00;;;18.20
19644;BMP180;9970;-36.854;174.870;2023-02-28T13:53:52;100767.00;;;18.20
19644;BMP180;9970;-36.854;174.870;2023-02-28T13:56:43;100765.00;;;18.20
19644;BMP180;9970;-36.854;174.870;2023-02-28T14:04:46;100767.00;;;18.10
19644;BMP180;9970;-36.854;174.870;2023-02-28T14:07:25;100769.00;;;18.10
19644;BMP180;9970;-36.854;174.870;2023-02-28T14:10:04;100767.00;;;18.10
19644;BMP180;9970;-36.854;174.870;2023-02-28T14:15:39;100768.00;;;18.10
19644;BMP180;9970;-36.854;174.870;2023-02-28T14:18:19;100770.00;;;18.10
19644;BMP180;9970;-36.854;174.870;2023-02-28T14:21:02;100770.00;;;18.00
19644;BMP180;9970;-36.854;174.870;2023-02-28T14:29:38;100765.00;;;18.00
19644;BMP180;9970;-36.854;174.870;2023-02-28T14:32:14;100752.00;;;18.00
19644;BMP180;9970;-36.854;174.870;2023-02-28T14:37:42;100751.00;;;18.00
19644;BMP180;9970;-36.854;174.870;2023-02-28T14:42:59;100755.00;;;18.00
19644;BMP180;9970;-36.854;174.870;2023-02-28T14:45:34;100756.00;;;18.00
19644;BMP180;9970;-36.854;174.870;2023-02-28T14:48:08;100755.00;;;17.90
19644;BMP180;9970;-36.854;174.870;2023-02-28T14:50:47;100750.00;;;17.90
19644;BMP180;9970;-36.854;174.870;2023-02-28T14:53:21;100752.00;;;17.90
19644;BMP180;9970;-36.854;174.870;2023-02-28T14:55:54;100760.00;;;17.90
19644;BMP180;9970;-36.854;174.870;2023-02-28T14:58:30;100753.00;;;17.90
19644;BMP180;9970;-36.854;174.870;2023-02-28T15:01:09;100762.00;;;17.80
19644;BMP180;9970;-36.854;174.870;2023-02-28T15:03:41;100761.00;;;17.90
19644;BMP180;9970;-36.854;174.870;2023-02-28T15:06:26;100771.00;;;17.80
19644;BMP180;9970;-36.854;174.870;2023-02-28T15:09:13;100772.00;;;17.80
19644;BMP180;9970;-36.854;174.870;2023-02-28T15:11:47;100774.00;;;17.80
19644;BMP180;9970;-36.854;174.870;2023-02-28T15:14:21;100771.00;;;17.80
19644;BMP180;9970;-36.854;174.870;2023-02-28T15:17:06;100766.00;;;17.80
19644;BMP180;9970;-36.854;174.870;2023-02-28T15:19:46;100768.00;;;17.80
19644;BMP180;9970;-36.854;174.870;2023-02-28T15:22:25;100769.00;;;17.80
19644;BMP180;9970;-36.854;174.870;2023-02-28T15:24:59;100768.00;;;17.80
19644;BMP180;9970;-36.854;174.870;2023-02-28T15:27:44;100770.00;;;17.80
19644;BMP180;9970;-36.854;174.870;2023-02-28T15:30:31;100768.00;;;17.80
19644;BMP180;9970;-36.854;174.870;2023-02-28T15:36:04;100779.00;;;17.80
19644;BMP180;9970;-36.854;174.870;2023-02-28T15:38:44;100772.00;;;17.80
19644;BMP180;9970;-36.854;174.870;2023-02-28T15:41:28;100776.00;;;17.70
19644;BMP180;9970;-36.854;174.870;2023-02-28T15:44:24;100770.00;;;17.70
19644;BMP180;9970;-36.854;174.870;2023-02-28T15:47:19;100778.00;;;17.70
19644;BMP180;9970;-36.854;174.870;2023-02-28T15:50:10;100772.00;;;17.70
19644;BMP180;9970;-36.854;174.870;2023-02-28T15:52:49;100772.00;;;17.70
19644;BMP180;9970;-36.854;174.870;2023-02-28T15:55:40;100775.00;;;17.70
19644;BMP180;9970;-36.854;174.870;2023-02-28T15:58:22;100769.00;;;17.70
19644;BMP180;9970;-36.854;174.870;2023-02-28T16:01:27;100768.00;;;17.70
19644;BMP180;9970;-36.854;174.870;2023-02-28T16:04:03;100773.00;;;17.70
19644;BMP180;9970;-36.854;174.870;2023-02-28T16:07:02;100773.00;;;17.70
19644;BMP180;9970;-36.854;174.870;2023-02-28T16:09:35;100772.00;;;17.70